createdAt,value
2022-10-31T00:01:29.101Z,20.30
2022-10-31T00:03:57.334Z,20.20
2022-10-31T00:06:25.778Z,20.20
2022-10-31T00:08:55.558Z,20.10
2022-10-31T00:11:24.018Z,20.10
2022-10-31T00:13:53.428Z,20.10
2022-10-31T00:16:23.789Z,20.10
2022-10-31T00:18:52.533Z,20.00
2022-10-31T00:21:20.719Z,20.00
2022-10-31T00:23:48.520Z,20.00
2022-10-31T00:26:16.795Z,20.00
2022-10-31T00:28:44.843Z,20.00
2022-10-31T00:31:15.096Z,20.00
2022-10-31T00:33:43.357Z,20.00
2022-10-31T00:36:14.587Z,20.00
2022-10-31T00:38:42.674Z,19.90
2022-10-31T00:41:10.977Z,20.00
2022-10-31T00:43:42.102Z,19.90
2022-10-31T00:46:10.413Z,19.80
2022-10-31T00:48:39.567Z,19.80
2022-10-31T00:51:07.863Z,19.90
2022-10-31T00:53:36.174Z,20.00
2022-10-31T00:56:04.318Z,20.00
2022-10-31T00:58:32.135Z,20.00
2022-10-31T01:01:00.081Z,19.80
2022-10-31T01:03:31.110Z,19.80
2022-10-31T01:06:02.858Z,19.80
2022-10-31T01:08:33.918Z,19.80
2022-10-31T01:11:03.946Z,19.80
2022-10-31T01:13:31.760Z,19.90
2022-10-31T01:16:00.555Z,19.80
2022-10-31T01:18:29.386Z,19.80
2022-10-31T01:21:03.288Z,19.80
2022-10-31T01:23:31.167Z,19.80
2022-10-31T01:26:08.315Z,19.70
2022-10-31T01:28:37.132Z,19.80
2022-10-31T01:31:07.481Z,19.80
2022-10-31T01:33:36.576Z,19.70
2022-10-31T01:36:14.538Z,19.70
2022-10-31T01:38:42.467Z,19.70
2022-10-31T01:41:11.730Z,19.70
2022-10-31T01:43:54.261Z,19.70
2022-10-31T01:46:24.671Z,19.70
2022-10-31T01:48:54.582Z,19.60
2022-10-31T01:51:28.421Z,19.60
2022-10-31T01:53:59.425Z,19.60
2022-10-31T01:56:28.048Z,19.50
2022-10-31T01:58:58.813Z,19.60
2022-10-31T02:01:27.515Z,19.50
2022-10-31T02:03:57.203Z,19.50
2022-10-31T02:06:34.929Z,19.50
2022-10-31T02:09:04.282Z,19.50
2022-10-31T02:11:33.494Z,19.50
2022-10-31T02:14:04.157Z,19.50
2022-10-31T02:16:31.985Z,19.50
2022-10-31T02:18:59.918Z,19.50
2022-10-31T02:21:39.563Z,19.50
2022-10-31T02:24:47.521Z,19.40
2022-10-31T02:27:46.416Z,19.40
2022-10-31T02:30:19.301Z,19.40
2022-10-31T02:33:14.342Z,19.50
2022-10-31T02:35:52.238Z,19.40
2022-10-31T02:38:44.837Z,19.50
2022-10-31T02:41:26.416Z,19.50
2022-10-31T02:44:02.309Z,19.50
2022-10-31T02:46:36.273Z,19.50
2022-10-31T02:49:12.143Z,19.50
2022-10-31T02:51:41.587Z,19.50
2022-10-31T02:54:19.776Z,19.50
2022-10-31T02:56:48.630Z,19.50
2022-10-31T02:59:17.983Z,19.50
2022-10-31T03:02:11.369Z,19.50
2022-10-31T03:04:59.885Z,19.40
2022-10-31T03:07:38.183Z,19.40
2022-10-31T03:10:16.376Z,19.40
2022-10-31T03:12:51.828Z,19.40
2022-10-31T03:15:22.841Z,19.30
2022-10-31T03:17:59.738Z,19.30
2022-10-31T03:20:35.320Z,19.20
2022-10-31T03:23:05.761Z,19.30
2022-10-31T03:25:36.298Z,19.30
2022-10-31T03:28:06.238Z,19.20
2022-10-31T03:30:36.972Z,19.30
2022-10-31T03:33:10.262Z,19.30
2022-10-31T03:35:44.457Z,19.20
2022-10-31T03:38:13.454Z,19.20
2022-10-31T03:40:45.317Z,19.20
2022-10-31T03:43:18.436Z,19.20
2022-10-31T03:45:48.717Z,19.10
2022-10-31T03:48:18.494Z,19.10
2022-10-31T03:50:57.178Z,19.00
2022-10-31T03:53:28.279Z,18.90
2022-10-31T03:56:02.776Z,19.00
2022-10-31T03:58:40.175Z,18.90
2022-10-31T04:01:11.348Z,18.90
2022-10-31T04:03:40.647Z,18.90
2022-10-31T04:06:15.740Z,18.90
2022-10-31T04:08:49.886Z,18.90
2022-10-31T04:11:23.156Z,18.90
2022-10-31T04:14:10.832Z,18.90
2022-10-31T04:16:39.347Z,18.90
2022-10-31T04:19:07.194Z,18.90
2022-10-31T04:21:36.421Z,18.90
2022-10-31T04:24:04.466Z,18.90
2022-10-31T04:26:32.351Z,18.80
2022-10-31T04:29:00.437Z,18.50
2022-10-31T04:31:29.612Z,18.70
2022-10-31T04:33:57.408Z,18.80
2022-10-31T04:36:25.218Z,18.80
2022-10-31T04:38:56.172Z,18.80
2022-10-31T04:41:37.188Z,18.80
2022-10-31T04:44:11.642Z,18.80
2022-10-31T04:46:39.422Z,18.80
2022-10-31T04:49:08.466Z,18.50
2022-10-31T04:51:36.989Z,18.70
2022-10-31T04:54:06.458Z,18.80
2022-10-31T04:56:52.665Z,18.80
2022-10-31T04:59:23.412Z,18.80
2022-10-31T05:01:55.662Z,18.90
2022-10-31T05:04:33.504Z,18.90
2022-10-31T05:07:01.338Z,18.90
2022-10-31T05:09:30.527Z,18.90
2022-10-31T05:11:58.372Z,18.90
2022-10-31T05:14:48.601Z,18.80
2022-10-31T05:17:34.998Z,18.90
2022-10-31T05:20:12.151Z,18.80
2022-10-31T05:23:04.757Z,18.90
2022-10-31T05:25:33.886Z,18.80
2022-10-31T05:28:05.162Z,18.80
2022-10-31T05:30:34.277Z,18.70
2022-10-31T05:33:03.008Z,18.40
2022-10-31T05:35:46.188Z,18.60
2022-10-31T05:38:28.474Z,18.80
2022-10-31T05:41:02.040Z,18.80
2022-10-31T05:43:32.298Z,18.90
2022-10-31T05:46:01.014Z,18.80
2022-10-31T05:48:47.495Z,18.90
2022-10-31T05:51:34.207Z,18.80
2022-10-31T05:54:02.008Z,18.80
2022-10-31T05:56:32.507Z,18.90
2022-10-31T05:59:01.217Z,18.90
2022-10-31T06:01:29.260Z,18.90
2022-10-31T06:03:59.765Z,19.00
2022-10-31T06:06:27.556Z,19.00
2022-10-31T06:08:55.601Z,19.00
2022-10-31T06:11:24.383Z,18.90
2022-10-31T06:14:05.390Z,18.90
2022-10-31T06:16:40.518Z,18.90
2022-10-31T06:19:28.410Z,18.70
2022-10-31T06:21:56.239Z,18.70
2022-10-31T06:24:24.102Z,18.60
2022-10-31T06:27:02.264Z,18.40
2022-10-31T06:29:31.539Z,18.40
2022-10-31T06:32:06.415Z,18.60
2022-10-31T06:34:39.771Z,18.80
2022-10-31T06:37:07.968Z,18.80
2022-10-31T06:39:36.389Z,18.80
2022-10-31T06:42:04.920Z,18.60
2022-10-31T06:44:34.864Z,18.20
2022-10-31T06:47:28.573Z,18.30
2022-10-31T06:50:05.340Z,18.40
2022-10-31T06:52:33.154Z,18.10
2022-10-31T06:55:00.976Z,17.90
2022-10-31T06:57:29.243Z,18.40
2022-10-31T06:59:58.702Z,18.40
2022-10-31T07:02:34.368Z,18.40
2022-10-31T07:05:02.586Z,18.60
2022-10-31T07:07:30.524Z,18.50
2022-10-31T07:09:58.490Z,18.50
2022-10-31T07:12:42.831Z,18.50
2022-10-31T07:15:12.350Z,18.50
2022-10-31T07:17:40.219Z,18.80
2022-10-31T07:20:10.734Z,18.70
2022-10-31T07:22:39.627Z,18.90
2022-10-31T07:25:10.578Z,18.90
2022-10-31T07:27:57.581Z,18.90
2022-10-31T07:30:26.961Z,18.70
2022-10-31T07:32:57.288Z,18.50
2022-10-31T07:35:30.528Z,18.60
2022-10-31T07:38:08.105Z,18.50
2022-10-31T07:40:35.903Z,18.60
2022-10-31T07:43:04.474Z,18.50
2022-10-31T07:46:08.907Z,18.60
2022-10-31T07:48:48.653Z,18.70
2022-10-31T07:51:35.121Z,18.90
2022-10-31T07:54:30.077Z,18.90
2022-10-31T07:56:57.840Z,19.00
2022-10-31T07:59:26.648Z,19.30
2022-10-31T08:01:56.999Z,19.60
2022-10-31T08:04:45.090Z,19.90
2022-10-31T08:07:38.426Z,20.00
2022-10-31T08:10:09.149Z,20.00
2022-10-31T08:12:37.000Z,20.10
2022-10-31T08:15:09.752Z,20.00
2022-10-31T08:17:40.234Z,20.20
2022-10-31T08:20:09.578Z,20.30
2022-10-31T08:22:46.584Z,20.30
2022-10-31T08:25:14.566Z,20.30
2022-10-31T08:27:42.332Z,20.30
2022-10-31T08:30:17.989Z,20.30
2022-10-31T08:33:04.481Z,20.40
2022-10-31T08:35:50.941Z,20.50
2022-10-31T08:38:37.365Z,20.50
2022-10-31T08:41:05.215Z,20.50
2022-10-31T08:43:33.094Z,20.40
2022-10-31T08:46:01.107Z,20.40
2022-10-31T08:48:32.950Z,20.50
2022-10-31T08:51:02.015Z,20.60
2022-10-31T08:53:30.871Z,20.70
2022-10-31T08:56:18.613Z,20.90
2022-10-31T08:58:47.063Z,20.90
2022-10-31T09:01:15.624Z,21.10
2022-10-31T09:03:46.645Z,21.20
2022-10-31T09:06:14.646Z,21.10
2022-10-31T09:08:42.494Z,21.10
2022-10-31T09:11:11.332Z,21.10
2022-10-31T09:13:57.868Z,21.10
2022-10-31T09:16:40.598Z,21.10
2022-10-31T09:19:16.515Z,21.10
2022-10-31T09:21:47.366Z,21.20
2022-10-31T09:24:15.250Z,21.20
2022-10-31T09:26:44.222Z,21.40
2022-10-31T09:29:18.674Z,21.40
2022-10-31T09:31:50.222Z,21.50
2022-10-31T09:34:32.981Z,21.60
2022-10-31T09:37:08.536Z,21.80
2022-10-31T09:39:37.020Z,21.50
2022-10-31T09:42:31.397Z,21.40
2022-10-31T09:45:08.963Z,21.30
2022-10-31T09:47:48.052Z,21.30
2022-10-31T09:50:54.442Z,21.40
2022-10-31T09:53:53.097Z,21.40
2022-10-31T09:56:25.212Z,21.60
2022-10-31T09:59:01.457Z,21.40
2022-10-31T10:01:41.798Z,21.40
2022-10-31T10:04:29.299Z,21.60
2022-10-31T10:07:13.175Z,21.60
2022-10-31T10:09:47.573Z,21.60
2022-10-31T10:12:50.499Z,21.70
2022-10-31T10:15:36.321Z,21.40
2022-10-31T10:18:11.264Z,21.30
2022-10-31T10:20:45.923Z,21.30
2022-10-31T10:23:30.684Z,21.30
2022-10-31T10:26:10.965Z,21.30
2022-10-31T10:28:43.606Z,21.30
2022-10-31T10:31:16.291Z,21.50
2022-10-31T10:33:49.382Z,21.50
2022-10-31T10:36:23.456Z,21.50
2022-10-31T10:38:55.700Z,21.70
2022-10-31T10:41:25.690Z,21.70
2022-10-31T10:43:55.055Z,21.60
2022-10-31T10:46:49.064Z,21.50
2022-10-31T10:49:19.357Z,21.70
2022-10-31T10:55:01.055Z,21.50
2022-10-31T10:57:39.129Z,21.50
2022-10-31T11:00:19.164Z,21.50
2022-10-31T11:02:49.012Z,21.40
2022-10-31T11:05:25.124Z,21.30
2022-10-31T11:07:53.081Z,21.20
2022-10-31T11:10:22.253Z,21.20
2022-10-31T11:13:03.664Z,21.30
2022-10-31T11:15:35.573Z,21.30
2022-10-31T11:18:03.649Z,21.20
2022-10-31T11:20:35.442Z,21.20
2022-10-31T11:23:07.261Z,21.20
2022-10-31T11:25:37.000Z,21.20
2022-10-31T11:28:06.974Z,21.40
2022-10-31T11:30:44.107Z,21.50
2022-10-31T11:33:19.453Z,21.60
2022-10-31T11:35:50.934Z,21.50
2022-10-31T11:38:25.019Z,21.50
2022-10-31T11:40:56.914Z,21.40
2022-10-31T11:43:25.491Z,21.40
2022-10-31T11:45:53.479Z,21.30
2022-10-31T11:48:24.530Z,21.20
2022-10-31T11:50:56.456Z,21.20
2022-10-31T11:53:29.131Z,21.10
2022-10-31T11:56:15.038Z,21.20
2022-10-31T11:58:44.207Z,21.20
2022-10-31T12:01:26.219Z,21.20
2022-10-31T12:04:02.002Z,21.20
2022-10-31T12:06:35.226Z,21.10
2022-10-31T12:09:03.047Z,21.20
2022-10-31T12:11:44.965Z,21.10
2022-10-31T12:14:24.130Z,21.10
2022-10-31T12:16:58.722Z,21.00
2022-10-31T12:19:36.864Z,21.10
2022-10-31T12:22:12.197Z,21.20
2022-10-31T12:25:19.523Z,21.20
2022-10-31T12:28:02.701Z,21.30
2022-10-31T12:30:38.000Z,21.20
2022-10-31T12:33:20.049Z,21.30
2022-10-31T12:36:00.533Z,21.30
2022-10-31T12:38:53.998Z,21.70
2022-10-31T12:41:34.844Z,21.80
2022-10-31T12:44:08.154Z,21.50
2022-10-31T12:46:59.055Z,21.50
2022-10-31T12:49:44.390Z,21.60
2022-10-31T12:52:28.539Z,21.50
2022-10-31T12:55:11.333Z,21.50
2022-10-31T12:57:43.718Z,21.50
2022-10-31T13:00:17.758Z,21.50
2022-10-31T13:02:52.589Z,21.50
2022-10-31T13:05:28.488Z,21.50
2022-10-31T13:07:59.736Z,21.50
2022-10-31T13:10:32.281Z,21.40
2022-10-31T13:13:06.498Z,21.40
2022-10-31T13:15:47.127Z,21.50
2022-10-31T13:18:23.316Z,21.50
2022-10-31T13:20:55.521Z,21.50
2022-10-31T13:23:49.924Z,21.40
2022-10-31T13:26:24.006Z,21.50
2022-10-31T13:28:58.078Z,21.50
2022-10-31T13:31:27.539Z,21.60
2022-10-31T13:33:59.301Z,21.60
2022-10-31T13:36:35.219Z,21.30
2022-10-31T13:39:25.260Z,21.20
2022-10-31T13:41:59.213Z,21.20
2022-10-31T13:44:28.718Z,21.30
2022-10-31T13:46:59.265Z,21.40
2022-10-31T13:49:39.518Z,21.40
2022-10-31T13:52:15.366Z,21.50
2022-10-31T13:54:44.957Z,21.50
2022-10-31T13:57:20.041Z,21.40
2022-10-31T13:59:54.851Z,21.50
2022-10-31T14:02:28.791Z,21.60
2022-10-31T14:05:00.394Z,21.50
2022-10-31T14:07:30.220Z,21.70
2022-10-31T14:10:01.329Z,21.60
2022-10-31T14:12:35.254Z,21.60
2022-10-31T14:15:14.436Z,21.50
2022-10-31T14:17:51.753Z,21.20
2022-10-31T14:20:34.438Z,21.30
2022-10-31T14:23:14.061Z,21.40
2022-10-31T14:25:42.502Z,21.50
2022-10-31T14:28:24.287Z,21.50
2022-10-31T14:30:57.542Z,21.40
2022-10-31T14:33:29.958Z,21.30
2022-10-31T14:36:02.661Z,21.30
2022-10-31T14:38:56.849Z,21.40
2022-10-31T14:41:38.676Z,21.40
2022-10-31T14:44:43.335Z,21.40
2022-10-31T14:47:20.771Z,21.40
2022-10-31T14:50:16.209Z,21.40
2022-10-31T14:52:50.041Z,21.40
2022-10-31T14:55:19.517Z,21.40
2022-10-31T14:57:53.103Z,21.40
2022-10-31T15:00:22.690Z,21.30
2022-10-31T15:03:04.983Z,21.20
2022-10-31T15:05:36.495Z,21.20
2022-10-31T15:08:04.570Z,21.30
2022-10-31T15:10:35.762Z,21.30
2022-10-31T15:13:19.010Z,21.30
2022-10-31T15:15:51.294Z,21.30
2022-10-31T15:18:23.158Z,21.30
2022-10-31T15:20:54.322Z,21.20
2022-10-31T15:23:25.953Z,21.20
2022-10-31T15:26:00.569Z,21.30
2022-10-31T15:28:28.981Z,21.30
2022-10-31T15:30:59.150Z,21.40
2022-10-31T15:33:33.681Z,21.40
2022-10-31T15:36:07.778Z,21.40
2022-10-31T15:38:35.698Z,21.30
2022-10-31T15:41:06.206Z,21.30
2022-10-31T15:43:37.682Z,21.30
2022-10-31T15:46:09.637Z,21.20
2022-10-31T15:48:37.858Z,21.20
2022-10-31T15:51:07.859Z,21.20
2022-10-31T15:53:39.974Z,21.20
2022-10-31T15:56:10.268Z,21.20
2022-10-31T15:58:44.594Z,21.30
2022-10-31T16:01:23.659Z,21.00
2022-10-31T16:04:03.849Z,21.00
2022-10-31T16:06:34.887Z,21.10
2022-10-31T16:09:03.282Z,21.10
2022-10-31T16:11:36.189Z,21.10
2022-10-31T16:14:08.130Z,21.00
2022-10-31T16:16:42.598Z,21.00
2022-10-31T16:19:19.853Z,21.00
2022-10-31T16:21:50.795Z,21.00
2022-10-31T16:24:22.512Z,20.90
2022-10-31T16:26:51.427Z,20.90
2022-10-31T16:29:30.872Z,20.90
2022-10-31T16:31:58.667Z,21.00
2022-10-31T16:34:27.278Z,20.90
2022-10-31T16:36:56.488Z,21.00
2022-10-31T16:39:24.314Z,21.00
2022-10-31T16:41:54.068Z,20.90
2022-10-31T16:44:24.451Z,20.90
2022-10-31T16:47:09.931Z,21.00
2022-10-31T16:49:38.330Z,20.90
2022-10-31T16:52:07.567Z,20.90
2022-10-31T16:54:35.377Z,20.90
2022-10-31T16:57:05.533Z,20.90
2022-10-31T16:59:34.571Z,20.80
2022-10-31T17:02:05.020Z,20.80
2022-10-31T17:04:32.983Z,20.80
2022-10-31T17:07:00.772Z,20.80
2022-10-31T17:09:29.925Z,20.70
2022-10-31T17:11:58.716Z,20.60
2022-10-31T17:14:26.811Z,20.40
2022-10-31T17:17:01.810Z,20.50
2022-10-31T17:19:29.660Z,20.40
2022-10-31T17:21:57.557Z,20.40
2022-10-31T17:24:25.350Z,20.50
2022-10-31T17:26:54.459Z,20.40
2022-10-31T17:29:22.278Z,20.50
2022-10-31T17:31:50.055Z,20.60
2022-10-31T17:34:19.215Z,20.60
2022-10-31T17:36:51.623Z,20.70
2022-10-31T17:39:19.958Z,20.70
2022-10-31T17:41:50.842Z,20.70
2022-10-31T17:44:20.674Z,20.70
2022-10-31T17:46:48.500Z,20.60
2022-10-31T17:49:16.521Z,20.60
2022-10-31T17:51:44.284Z,20.60
2022-10-31T17:54:12.116Z,20.60
2022-10-31T17:56:39.903Z,20.70
2022-10-31T17:59:07.716Z,20.60
2022-10-31T18:01:36.888Z,20.50
2022-10-31T18:04:04.857Z,20.60
2022-10-31T18:06:32.634Z,20.50
2022-10-31T18:09:04.495Z,20.40
2022-10-31T18:11:32.817Z,20.50
2022-10-31T18:14:01.333Z,20.50
2022-10-31T18:16:29.155Z,20.50
2022-10-31T18:19:01.709Z,20.60
2022-10-31T18:21:29.669Z,20.50
2022-10-31T18:23:58.682Z,20.50
2022-10-31T18:26:28.083Z,20.50
2022-10-31T18:28:56.480Z,20.50
2022-10-31T18:31:24.515Z,20.50
2022-10-31T18:33:54.310Z,20.50
2022-10-31T18:36:23.809Z,20.40
2022-10-31T18:38:51.628Z,20.50
2022-10-31T18:41:19.546Z,20.50
2022-10-31T18:43:47.328Z,20.50
2022-10-31T18:46:17.002Z,20.40
2022-10-31T18:48:46.333Z,20.40
2022-10-31T18:51:15.792Z,20.50
2022-10-31T18:53:50.321Z,20.50
2022-10-31T18:56:18.077Z,20.50
2022-10-31T18:58:45.934Z,20.50
2022-10-31T19:01:14.948Z,20.50
2022-10-31T19:03:42.842Z,20.60
2022-10-31T19:06:11.614Z,20.50
2022-10-31T19:08:40.604Z,20.50
2022-10-31T19:11:11.637Z,20.60
2022-10-31T19:13:40.105Z,20.60
2022-10-31T19:16:10.536Z,20.60
2022-10-31T19:18:38.796Z,20.60
2022-10-31T19:21:07.492Z,20.60
2022-10-31T19:23:35.578Z,20.60
2022-10-31T19:26:03.466Z,20.60
2022-10-31T19:28:33.676Z,20.50
2022-10-31T19:31:01.737Z,20.60
2022-10-31T19:33:34.889Z,20.60
2022-10-31T19:36:08.119Z,20.50
2022-10-31T19:38:36.632Z,20.50
2022-10-31T19:41:08.128Z,20.50
2022-10-31T19:43:37.292Z,20.40
2022-10-31T19:46:06.242Z,20.30
2022-10-31T19:48:36.910Z,20.30
2022-10-31T19:51:07.297Z,20.30
2022-10-31T19:53:35.606Z,20.30
2022-10-31T19:56:04.059Z,20.40
2022-10-31T19:58:33.501Z,20.30
2022-10-31T20:01:08.020Z,20.30
2022-10-31T20:03:35.861Z,20.20
2022-10-31T20:06:04.423Z,20.20
2022-10-31T20:08:37.027Z,20.20
2022-10-31T20:11:07.089Z,20.20
2022-10-31T20:13:35.122Z,20.20
2022-10-31T20:16:07.374Z,20.20
2022-10-31T20:18:35.652Z,20.20
2022-10-31T20:21:05.117Z,20.20
2022-10-31T20:23:33.171Z,20.20
2022-10-31T20:26:01.556Z,20.20
2022-10-31T20:28:31.021Z,20.20
2022-10-31T20:30:58.966Z,20.20
2022-10-31T20:33:28.537Z,20.20
2022-10-31T20:35:56.322Z,20.10
2022-10-31T20:38:24.102Z,20.10
2022-10-31T20:40:51.901Z,20.20
2022-10-31T20:43:19.670Z,20.10
2022-10-31T20:45:47.473Z,20.10
2022-10-31T20:48:15.270Z,20.00
2022-10-31T20:50:44.451Z,20.00
2022-10-31T20:53:13.667Z,20.10
2022-10-31T20:55:41.458Z,20.10
2022-10-31T20:58:09.270Z,20.10
2022-10-31T21:00:37.983Z,20.00
2022-10-31T21:03:05.753Z,20.00
2022-10-31T21:05:33.550Z,20.00
2022-10-31T21:08:02.925Z,20.00
2022-10-31T21:10:30.713Z,20.00
2022-10-31T21:12:58.725Z,20.10
2022-10-31T21:15:26.715Z,20.00
2022-10-31T21:17:55.581Z,20.00
2022-10-31T21:20:23.551Z,20.10
2022-10-31T21:22:51.368Z,20.10
2022-10-31T21:25:20.505Z,20.10
2022-10-31T21:27:48.440Z,20.00
2022-10-31T21:30:16.486Z,20.00
2022-10-31T21:32:44.267Z,20.10
2022-10-31T21:35:12.040Z,20.00
2022-10-31T21:37:39.802Z,20.00
2022-10-31T21:40:08.882Z,20.10
2022-10-31T21:42:37.993Z,20.00
2022-10-31T21:45:06.357Z,20.00
2022-10-31T21:47:34.113Z,20.00
2022-10-31T21:50:01.918Z,20.10
2022-10-31T21:52:29.689Z,20.00
2022-10-31T21:54:56.486Z,19.90
2022-10-31T21:57:24.292Z,20.00
2022-10-31T21:59:53.413Z,19.90
2022-10-31T22:02:21.204Z,19.90
2022-10-31T22:04:50.867Z,19.90
2022-10-31T22:07:19.024Z,19.80
2022-10-31T22:09:47.301Z,19.80
2022-10-31T22:12:15.641Z,19.70
2022-10-31T22:14:43.674Z,19.70
2022-10-31T22:17:12.774Z,19.70
2022-10-31T22:19:40.680Z,19.70
2022-10-31T22:22:08.476Z,19.60
2022-10-31T22:24:36.281Z,19.70
2022-10-31T22:27:04.053Z,19.60
2022-10-31T22:29:31.852Z,19.60
2022-10-31T22:32:01.625Z,19.70
2022-10-31T22:34:31.186Z,19.60
2022-10-31T22:36:58.942Z,19.60
2022-10-31T22:39:26.798Z,19.60
2022-10-31T22:41:54.577Z,19.70
2022-10-31T22:44:22.378Z,19.60
2022-10-31T22:46:50.154Z,19.60
2022-10-31T22:49:17.942Z,19.60
2022-10-31T22:51:47.074Z,19.70
2022-10-31T22:54:16.633Z,19.60
2022-10-31T22:56:45.114Z,19.60
2022-10-31T22:59:14.668Z,19.70
2022-10-31T23:01:44.674Z,19.60
2022-10-31T23:04:13.288Z,19.80
2022-10-31T23:06:41.284Z,19.70
2022-10-31T23:09:11.987Z,19.70
2022-10-31T23:11:40.543Z,19.60
2022-10-31T23:14:10.303Z,19.60
2022-10-31T23:16:42.375Z,19.70
2022-10-31T23:19:12.027Z,19.60
2022-10-31T23:21:54.457Z,19.60
2022-10-31T23:24:29.927Z,19.70
2022-10-31T23:27:07.680Z,19.60
2022-10-31T23:29:38.045Z,19.70
2022-10-31T23:32:07.220Z,19.70
2022-10-31T23:34:35.108Z,19.60
2022-10-31T23:37:02.912Z,19.60
2022-10-31T23:39:32.081Z,19.60
2022-10-31T23:41:59.893Z,19.60
2022-10-31T23:44:27.685Z,19.60
2022-10-31T23:46:55.477Z,19.60
2022-10-31T23:49:23.264Z,19.70
2022-10-31T23:51:51.091Z,19.60
2022-10-31T23:54:18.955Z,19.60
2022-10-31T23:56:48.078Z,19.70
2022-10-31T23:59:15.951Z,19.70
